createdAt,value
2023-03-22T00:00:19.722Z,11.45
2023-03-22T00:05:23.085Z,11.43
2023-03-22T00:10:29.000Z,11.42
2023-03-22T00:15:31.924Z,11.40
2023-03-22T00:20:37.633Z,11.31
2023-03-22T00:25:42.156Z,11.43
2023-03-22T00:30:52.449Z,11.48
2023-03-22T00:35:58.755Z,11.42
2023-03-22T00:41:08.554Z,11.44
2023-03-22T00:46:12.154Z,11.51
2023-03-22T00:51:15.762Z,11.34
2023-03-22T00:56:22.922Z,11.40
2023-03-22T01:01:33.635Z,11.36
2023-03-22T01:06:36.650Z,11.34
2023-03-22T01:11:41.533Z,11.00
2023-03-22T01:16:44.527Z,10.99
2023-03-22T01:21:47.542Z,11.14
2023-03-22T01:26:52.060Z,10.85
2023-03-22T01:31:55.023Z,10.92
2023-03-22T01:36:58.173Z,10.77
2023-03-22T01:42:05.553Z,10.80
2023-03-22T01:47:11.452Z,10.68
2023-03-22T01:52:16.790Z,10.50
2023-03-22T01:57:45.238Z,10.76
2023-03-22T02:02:56.565Z,10.57
2023-03-22T02:08:10.573Z,10.29
2023-03-22T02:13:48.009Z,10.02
2023-03-22T02:20:11.149Z,10.08
2023-03-22T02:25:45.956Z,10.00
2023-03-22T02:31:24.351Z,9.93
2023-03-22T02:36:55.690Z,9.84
2023-03-22T02:42:17.366Z,9.55
2023-03-22T02:47:25.703Z,9.43
2023-03-22T02:52:34.626Z,9.32
2023-03-22T02:57:43.635Z,9.71
2023-03-22T03:02:50.904Z,9.48
2023-03-22T03:07:58.208Z,9.66
2023-03-22T03:13:02.903Z,9.49
2023-03-22T03:18:20.223Z,9.23
2023-03-22T03:23:32.307Z,9.14
2023-03-22T03:28:44.874Z,9.34
2023-03-22T03:33:57.093Z,9.21
2023-03-22T03:39:02.182Z,9.14
2023-03-22T03:44:07.540Z,9.04
2023-03-22T03:49:12.750Z,9.37
2023-03-22T03:54:15.841Z,9.29
2023-03-22T03:59:20.889Z,9.23
2023-03-22T04:04:28.719Z,9.26
2023-03-22T04:09:38.834Z,9.22
2023-03-22T04:14:57.501Z,9.19
2023-03-22T04:20:06.116Z,9.16
2023-03-22T04:25:13.390Z,9.26
2023-03-22T04:30:27.575Z,9.18
2023-03-22T04:35:36.720Z,9.18
2023-03-22T04:40:46.919Z,9.15
2023-03-22T04:46:01.672Z,9.07
2023-03-22T04:51:12.577Z,8.98
2023-03-22T04:56:24.657Z,9.07
2023-03-22T05:01:29.850Z,9.03
2023-03-22T05:06:44.560Z,9.08
2023-03-22T05:11:54.081Z,9.01
2023-03-22T05:17:16.434Z,9.12
2023-03-22T05:22:22.445Z,9.09
2023-03-22T05:27:31.576Z,9.21
2023-03-22T05:32:59.775Z,9.43
2023-03-22T05:38:03.527Z,9.41
2023-03-22T05:43:09.092Z,9.52
2023-03-22T05:48:16.160Z,10.29
2023-03-22T05:53:20.035Z,10.66
2023-03-22T05:58:35.249Z,10.99
2023-03-22T06:03:40.749Z,10.94
2023-03-22T06:08:51.503Z,10.73
2023-03-22T06:13:54.680Z,10.58
2023-03-22T06:19:02.323Z,10.59
2023-03-22T06:24:05.746Z,10.56
2023-03-22T06:29:10.312Z,10.70
2023-03-22T06:34:14.868Z,11.09
2023-03-22T06:39:18.765Z,10.72
2023-03-22T06:44:22.622Z,10.60
2023-03-22T06:49:29.549Z,10.29
2023-03-22T06:54:34.390Z,10.62
2023-03-22T06:59:37.335Z,10.58
2023-03-22T07:04:41.661Z,10.62
2023-03-22T07:09:44.989Z,10.93
2023-03-22T07:14:48.827Z,10.88
2023-03-22T07:20:14.212Z,11.06
2023-03-22T07:25:18.741Z,11.45
2023-03-22T07:30:26.181Z,11.20
2023-03-22T07:35:31.464Z,11.37
2023-03-22T07:40:34.961Z,11.53
2023-03-22T07:45:39.163Z,11.93
2023-03-22T07:51:01.722Z,12.39
2023-03-22T07:56:06.567Z,13.49
2023-03-22T08:01:10.834Z,13.66
2023-03-22T08:06:37.075Z,13.53
2023-03-22T08:11:40.433Z,14.17
2023-03-22T08:16:44.239Z,14.35
2023-03-22T08:21:49.650Z,14.04
2023-03-22T08:27:12.373Z,14.07
2023-03-22T08:32:22.147Z,14.55
2023-03-22T08:37:26.489Z,15.19
2023-03-22T08:42:29.819Z,16.14
2023-03-22T08:47:33.294Z,16.24
2023-03-22T08:52:40.775Z,16.68
2023-03-22T08:58:00.601Z,16.64
2023-03-22T09:03:18.018Z,16.49
2023-03-22T09:08:22.356Z,15.48
2023-03-22T09:13:32.232Z,15.77
2023-03-22T09:18:37.939Z,15.86
2023-03-22T09:23:48.199Z,16.32
2023-03-22T09:28:54.900Z,16.32
2023-03-22T09:33:57.931Z,17.15
2023-03-22T09:39:06.660Z,17.85
2023-03-22T09:44:15.592Z,17.51
2023-03-22T09:49:21.234Z,17.58
2023-03-22T09:54:33.120Z,17.16
2023-03-22T09:59:45.525Z,17.47
2023-03-22T10:04:59.219Z,17.68
2023-03-22T10:10:10.231Z,17.92
2023-03-22T10:15:16.285Z,17.92
2023-03-22T10:20:28.781Z,17.42
2023-03-22T10:25:37.221Z,17.22
2023-03-22T10:30:42.052Z,17.50
2023-03-22T10:35:45.446Z,17.27
2023-03-22T10:40:51.522Z,17.53
2023-03-22T10:45:56.656Z,17.33
2023-03-22T10:51:01.322Z,17.02
2023-03-22T10:56:06.565Z,16.69
2023-03-22T11:01:11.669Z,17.02
2023-03-22T11:06:17.430Z,16.55
2023-03-22T11:11:27.031Z,16.94
2023-03-22T11:16:31.998Z,17.34
2023-03-22T11:21:35.992Z,17.59
2023-03-22T11:26:41.615Z,17.84
2023-03-22T11:31:57.294Z,18.20
2023-03-22T11:37:01.940Z,18.12
2023-03-22T11:42:07.700Z,18.08
2023-03-22T11:47:14.458Z,18.61
2023-03-22T11:52:19.675Z,18.26
2023-03-22T11:57:27.162Z,17.85
2023-03-22T12:02:33.769Z,17.77
2023-03-22T12:07:39.311Z,17.70
2023-03-22T12:12:49.584Z,18.07
2023-03-22T12:17:57.564Z,18.44
2023-03-22T12:23:01.043Z,17.97
2023-03-22T12:28:09.855Z,18.12
2023-03-22T12:33:19.594Z,17.98
2023-03-22T12:38:29.701Z,18.31
2023-03-22T12:43:50.962Z,18.41
2023-03-22T12:48:58.890Z,18.24
2023-03-22T12:54:02.952Z,17.96
2023-03-22T12:59:14.217Z,18.45
2023-03-22T13:04:51.319Z,18.39
2023-03-22T13:09:54.300Z,18.49
2023-03-22T13:15:41.215Z,18.95
2023-03-22T13:21:13.582Z,18.41
2023-03-22T13:26:17.360Z,18.28
2023-03-22T13:31:37.533Z,18.22
2023-03-22T13:36:40.763Z,18.19
2023-03-22T13:41:48.438Z,18.18
2023-03-22T13:46:54.466Z,18.24
2023-03-22T13:52:00.397Z,18.64
2023-03-22T13:57:03.718Z,18.50
2023-03-22T14:02:18.612Z,18.51
2023-03-22T14:07:25.329Z,18.35
2023-03-22T14:12:33.567Z,18.35
2023-03-22T14:17:43.599Z,18.22
